Meath Environmental Platform

Observations

Time Sensor AQI SAQ Temp °C Hum % Pres Pa CO μg/m³ H₂S μg/m³ NO μg/m³ NO₂ μg/m³ O₃ μg/m³ SO₂ μg/m³ CO₂e PPM VOC PPM PM1 μg/m³ PM2.5 μg/m³ PM4 μg/m³ PM10 μg/m³ TPS µm
Wednesday 12 August 2026
01:04 Trim Market St 2 20.7 58 57,887 0 0 1.2 17.19 63.65 0 1.43 4.12 5.43
01:03 Trim Patrick St 2 19.9 62 74,493 0 7.16 1.23 20.61 41.49 2.24 3.71 7.85 8.63
01:03 Trim Market St 2 20.7 58 57,887 0 0 1.2 28.79 54.26 0 2.14 4.13 5.43
01:02 Trim Patrick St 2 19.9 62 74,471 0 8.42 1.23 28.29 37.48 2.56 4.57 8.6 9.46
01:02 Trim Market St 2 20.7 58 57,885 0 0 1.21 18.92 56.21 0 0.71 2.62 3.33
01:01 Trim Patrick St 2 20 62 74,449 0 8.9 1.23 26.46 41.66 3.1 3.71 8.59 9.45
01:01 Trim Market St 2 20.7 58 57,887 0 0 1.2 14.95 64.67 0 1.43 3.63 5.43
01:00 Trim Patrick St 2 20 62 74,432 0 7.48 1.23 30.15 51.25 2.46 4.57 9.34 10.27
01:00 Trim Market St 2 20.7 58 57,887 0 0 1.21 28.81 54.55 0 0.71 3.13 4.03
00:59 Trim Patrick St 2 20 62 74,414 0 6.34 1.23 18.62 42.78 2.54 2.86 7.86 8.64
00:59 Trim Market St 2 20.7 58 57,889 0 0 1.21 19.48 62.46 0 1.43 3.64 4.72
00:58 Trim Patrick St 2 20 62 74,398 0 7.5 1.23 25.2 39.64 2.47 2.86 7.91 8.7
00:58 Trim Market St 2 20.7 58 57,889 0 0 1.22 17.96 57.75 0 0.71 3.64 5.43
00:57 Trim Patrick St 2 20 62 74,371 0 8.32 1.23 28.96 38.63 2.3 4.57 8.62 9.49
00:57 Trim Market St 2 20.8 58 57,889 0 0 1.22 17.95 63.36 0 0.71 3.14 4.02
00:56 Trim Patrick St 2 20 61 74,349 0 5.48 1.22 21.6 38.85 1.85 3.71 7.97 8.76
00:56 Trim Market St 2 20.8 58 57,891 0 0 1.22 15.6 63.45 0 2.14 3.64 4.72
00:55 Trim Patrick St 2 20 61 74,334 0 8.21 1.22 37.84 44.39 2.65 3.71 9.4 10.34
00:54 Trim Patrick St 2 20.1 62 74,312 0 7.95 1.23 20.26 42.48 3.13 4.57 9.36 10.3
00:54 Trim Market St 2 20.8 57 57,887 0 0 1.22 16.84 58.94 0 0.71 3.14 4.02